Dr.kaiyo — JD2325 — position and weather

sailwx.info

Track history (hours):
 
Tides and Currents Weather Stations Pressure Air Temp Water Temp Dewpoint Dewpoint Depression Visibility Wind Speed Wind Dir Waves Ship Positions

Dr.kaiyo

Last reported at 2015-May-28 05:31 UTC. Time now 2015-May-28 12:10 UTC.
Position N 34°42' E 135°13'.

Length 31 m.

Type: Other ship. MMSI: 431301823.

Date/timePositionNaut miles runAvg speedWind from/ knotsBaromVisibWave heightAir tempDewpointWater temp
2015-May-28 05:31N 34°42' E 135°13'7 7.3
2015-May-28 04:33N 34°35' E 135°14'5 4.7
2015-May-28 03:24N 34°34' E 135°20'3 3.4
2015-May-28 02:32N 34°34' E 135°17'1312.8
2015-May-28 01:33N 34°32' E 135°02'5 5.2
2015-May-28 00:32N 34°33' E 135°08'10 8.6
2015-May-27 23:25N 34°41' E 135°12'0 0.0
2015-May-27 05:25N 34°42' E 135°12'8 8.7
2015-May-27 04:33N 34°34' E 135°13'6 5.4
2015-May-27 03:30N 34°31' E 135°19'4 4.3
2015-May-27 02:33N 34°30' E 135°14'7 7.1
2015-May-27 01:33N 34°29' E 135°06'9 9.5
2015-May-27 00:33N 34°38' E 135°10'4 3.3
2015-May-26 23:30N 34°41' E 135°13'1 0.0
2015-May-26 05:25N 34°41' E 135°12'7 7.8
2015-May-26 04:33N 34°35' E 135°14'5 5.1
2015-May-26 03:31N 34°32' E 135°20'4 4.1
2015-May-26 02:33N 34°32' E 135°15'9 8.8
2015-May-26 01:33N 34°29' E 135°05'7 6.6
2015-May-26 00:33N 34°34' E 135°10'8 6.7
2015-May-25 23:24N 34°41' E 135°12'1 0.0
2015-May-25 06:33N 34°41' E 135°13'9 8.5
2015-May-25 05:33N 34°33' E 135°10'3 3.3
2015-May-25 04:33N 34°37' E 135°09'3 3.3
2015-May-25 03:32N 34°39' E 135°12'3 2.6
2015-May-25 02:33N 34°37' E 135°10'5 4.9
2015-May-25 01:33N 34°33' E 135°13'6 5.9
2015-May-25 00:33N 34°33' E 135°06'10 9.6
2015-May-24 23:31N 34°41' E 135°12'  
2015-May-22 05:05N 34°41' E 135°12'0 0.3
2015-May-22 04:33N 34°42' E 135°12'6 5.7
2015-May-22 03:33N 34°36' E 135°11'1 0.6
2015-May-22 02:33N 34°36' E 135°10'6 6.3
2015-May-22 01:33N 34°33' E 135°17'7 7.4
2015-May-22 00:33N 34°33' E 135°08'10 9.7
2015-May-21 23:33N 34°42' E 135°12'1 0.0
2015-May-21 06:33N 34°42' E 135°13'1212.4
2015-May-21 05:33N 34°30' E 135°07'4 4.5
2015-May-21 04:33N 34°35' E 135°08'5 5.1
2015-May-21 03:32N 34°39' E 135°12'2 2.3
2015-May-21 02:33N 34°37' E 135°13'9 8.7
2015-May-21 01:32N 34°28' E 135°09'4 4.5
2015-May-21 00:33N 34°33' E 135°09'9 8.7
2015-May-20 23:31N 34°41' E 135°12'2 0.1
2015-May-20 05:33N 34°40' E 135°15'1010.2
2015-May-20 04:33N 34°30' E 135°15'4 4.2
2015-May-20 03:32N 34°32' E 135°20'4 4.5
2015-May-20 02:33N 34°32' E 135°14'4 3.9
2015-May-20 01:33N 34°33' E 135°10'3 3.1
2015-May-20 00:32N 34°35' E 135°08'7 7.0
2015-May-19 23:33N 34°41' E 135°12'0 0.0
2015-May-19 05:08N 34°41' E 135°12'4 7.3
2015-May-19 04:33N 34°38' E 135°16'3 3.1
2015-May-19 03:30N 34°39' E 135°12'4 4.1
2015-May-19 02:33N 34°36' E 135°09'5 5.5
2015-May-19 01:33N 34°32' E 135°15'7 7.1
2015-May-19 00:33N 34°34' E 135°06'9 8.2
2015-May-18 23:28N 34°41' E 135°12'0 0.0
2015-May-18 06:33N 34°42' E 135°12'6 5.7
2015-May-18 05:33N 34°38' E 135°07'  
Track history (hours):
 
Tides and Currents Weather Stations Pressure Air Temp Water Temp Dewpoint Dewpoint Depression Visibility Wind Speed Wind Dir Waves Ship Positions

Dr.kaiyo

Last reported at 2015-May-28 05:31 UTC. Time now 2015-May-28 12:10 UTC.
Position N 34°42' E 135°13'.

Length 31 m.

Type: Other ship. MMSI: 431301823.

Date/timePositionNaut miles runAvg speedWind from/ knotsBaromVisibWave heightAir tempDewpointWater temp
2015-May-28 05:31N 34°42' E 135°13'7 7.3
2015-May-28 04:33N 34°35' E 135°14'5 4.7
2015-May-28 03:24N 34°34' E 135°20'3 3.4
2015-May-28 02:32N 34°34' E 135°17'1312.8
2015-May-28 01:33N 34°32' E 135°02'5 5.2
2015-May-28 00:32N 34°33' E 135°08'10 8.6
2015-May-27 23:25N 34°41' E 135°12'0 0.0
2015-May-27 05:25N 34°42' E 135°12'8 8.7
2015-May-27 04:33N 34°34' E 135°13'6 5.4
2015-May-27 03:30N 34°31' E 135°19'4 4.3
2015-May-27 02:33N 34°30' E 135°14'7 7.1
2015-May-27 01:33N 34°29' E 135°06'9 9.5
2015-May-27 00:33N 34°38' E 135°10'4 3.3
2015-May-26 23:30N 34°41' E 135°13'1 0.0
2015-May-26 05:25N 34°41' E 135°12'7 7.8
2015-May-26 04:33N 34°35' E 135°14'5 5.1
2015-May-26 03:31N 34°32' E 135°20'4 4.1
2015-May-26 02:33N 34°32' E 135°15'9 8.8
2015-May-26 01:33N 34°29' E 135°05'7 6.6
2015-May-26 00:33N 34°34' E 135°10'8 6.7
2015-May-25 23:24N 34°41' E 135°12'1 0.0
2015-May-25 06:33N 34°41' E 135°13'9 8.5
2015-May-25 05:33N 34°33' E 135°10'3 3.3
2015-May-25 04:33N 34°37' E 135°09'3 3.3
2015-May-25 03:32N 34°39' E 135°12'3 2.6
2015-May-25 02:33N 34°37' E 135°10'5 4.9
2015-May-25 01:33N 34°33' E 135°13'6 5.9
2015-May-25 00:33N 34°33' E 135°06'10 9.6
2015-May-24 23:31N 34°41' E 135°12'  
2015-May-22 05:05N 34°41' E 135°12'0 0.3
2015-May-22 04:33N 34°42' E 135°12'6 5.7
2015-May-22 03:33N 34°36' E 135°11'1 0.6
2015-May-22 02:33N 34°36' E 135°10'6 6.3
2015-May-22 01:33N 34°33' E 135°17'7 7.4
2015-May-22 00:33N 34°33' E 135°08'10 9.7
2015-May-21 23:33N 34°42' E 135°12'1 0.0
2015-May-21 06:33N 34°42' E 135°13'1212.4
2015-May-21 05:33N 34°30' E 135°07'4 4.5
2015-May-21 04:33N 34°35' E 135°08'5 5.1
2015-May-21 03:32N 34°39' E 135°12'2 2.3
2015-May-21 02:33N 34°37' E 135°13'9 8.7
2015-May-21 01:32N 34°28' E 135°09'4 4.5
2015-May-21 00:33N 34°33' E 135°09'9 8.7
2015-May-20 23:31N 34°41' E 135°12'2 0.1
2015-May-20 05:33N 34°40' E 135°15'1010.2
2015-May-20 04:33N 34°30' E 135°15'4 4.2
2015-May-20 03:32N 34°32' E 135°20'4 4.5
2015-May-20 02:33N 34°32' E 135°14'4 3.9
2015-May-20 01:33N 34°33' E 135°10'3 3.1
2015-May-20 00:32N 34°35' E 135°08'7 7.0
2015-May-19 23:33N 34°41' E 135°12'0 0.0
2015-May-19 05:08N 34°41' E 135°12'4 7.3
2015-May-19 04:33N 34°38' E 135°16'3 3.1
2015-May-19 03:30N 34°39' E 135°12'4 4.1
2015-May-19 02:33N 34°36' E 135°09'5 5.5
2015-May-19 01:33N 34°32' E 135°15'7 7.1
2015-May-19 00:33N 34°34' E 135°06'9 8.2
2015-May-18 23:28N 34°41' E 135°12'0 0.0
2015-May-18 06:33N 34°42' E 135°12'6 5.7
2015-May-18 05:33N 34°38' E 135°07'  

Dump ship's entire track history